createdAt,value
2023-05-10T00:00:09.106Z,38.93
2023-05-10T00:01:09.088Z,38.91
2023-05-10T00:02:09.107Z,38.95
2023-05-10T00:03:09.093Z,38.95
2023-05-10T00:04:09.161Z,38.95
2023-05-10T00:05:08.990Z,38.97
2023-05-10T00:06:08.960Z,38.93
2023-05-10T00:07:08.946Z,38.95
2023-05-10T00:08:08.938Z,38.96
2023-05-10T00:09:08.890Z,38.91
2023-05-10T00:10:08.883Z,38.93
2023-05-10T00:11:08.863Z,38.94
2023-05-10T00:12:08.836Z,38.99
2023-05-10T00:13:08.852Z,38.98
2023-05-10T00:14:08.795Z,38.94
2023-05-10T00:15:08.785Z,38.93
2023-05-10T00:16:08.817Z,38.93
2023-05-10T00:17:08.737Z,38.95
2023-05-10T00:18:08.849Z,38.97
2023-05-10T00:19:08.724Z,38.94
2023-05-10T00:20:08.694Z,38.94
2023-05-10T00:21:08.667Z,38.92
2023-05-10T00:22:08.669Z,38.99
2023-05-10T00:23:08.605Z,38.96
2023-05-10T00:24:08.587Z,38.93
2023-05-10T00:25:08.575Z,38.97
2023-05-10T00:26:08.567Z,38.99
2023-05-10T00:27:08.507Z,38.95
2023-05-10T00:28:08.494Z,38.97
2023-05-10T00:29:08.468Z,38.95
2023-05-10T00:30:08.445Z,38.93
2023-05-10T00:31:08.428Z,38.93
2023-05-10T00:32:08.519Z,38.95
2023-05-10T00:33:08.409Z,38.93
2023-05-10T00:34:08.353Z,38.96
2023-05-10T00:35:08.321Z,38.93
2023-05-10T00:36:08.314Z,38.93
2023-05-10T00:37:08.265Z,38.93
2023-05-10T00:38:08.253Z,38.95
2023-05-10T00:39:08.223Z,38.97
2023-05-10T00:40:08.192Z,38.96
2023-05-10T00:41:08.170Z,38.96
2023-05-10T00:42:08.147Z,38.99
2023-05-10T00:43:08.122Z,38.95
2023-05-10T00:44:08.099Z,38.93
2023-05-10T00:45:08.085Z,38.93
2023-05-10T00:46:08.104Z,38.91
2023-05-10T00:47:08.047Z,38.95
2023-05-10T00:48:08.069Z,38.91
2023-05-10T00:49:08.004Z,39.01
2023-05-10T00:50:07.983Z,38.99
2023-05-10T00:51:07.962Z,38.97
2023-05-10T00:52:07.929Z,38.95
2023-05-10T00:53:07.903Z,38.96
2023-05-10T00:54:07.892Z,39.01
2023-05-10T00:55:07.859Z,39.01
2023-05-10T00:56:07.837Z,38.98
2023-05-10T00:57:07.821Z,38.98
2023-05-10T00:58:07.790Z,38.98
2023-05-10T00:59:07.769Z,39.00
2023-05-10T01:00:07.764Z,38.98
2023-05-10T01:01:07.735Z,38.97
2023-05-10T01:02:07.737Z,38.95
2023-05-10T01:03:07.794Z,38.97
2023-05-10T01:04:07.640Z,39.00
2023-05-10T01:05:07.668Z,38.96
2023-05-10T01:06:07.602Z,38.95
2023-05-10T01:07:07.572Z,38.94
2023-05-10T01:08:07.548Z,38.98
2023-05-10T01:09:07.543Z,38.95
2023-05-10T01:10:07.499Z,38.96
2023-05-10T01:11:07.477Z,39.00
2023-05-10T01:12:07.479Z,38.94
2023-05-10T01:13:07.475Z,39.00
2023-05-10T01:14:07.432Z,38.99
2023-05-10T01:15:07.417Z,38.93
2023-05-10T01:16:07.430Z,38.93
2023-05-10T01:17:07.355Z,39.01
2023-05-10T01:18:07.336Z,38.93
2023-05-10T01:19:07.341Z,39.01
2023-05-10T01:20:07.297Z,38.98
2023-05-10T01:21:07.272Z,38.97
2023-05-10T01:22:07.263Z,38.95
2023-05-10T01:23:07.245Z,38.97
2023-05-10T01:24:07.228Z,39.04
2023-05-10T01:25:07.254Z,39.01
2023-05-10T01:26:07.182Z,38.98
2023-05-10T01:27:07.163Z,39.05
2023-05-10T01:28:07.233Z,39.00
2023-05-10T01:29:07.127Z,39.02
2023-05-10T01:30:15.331Z,38.98
2023-05-10T01:31:08.117Z,39.00
2023-05-10T01:32:07.075Z,38.97
2023-05-10T01:33:07.082Z,38.99
2023-05-10T01:34:07.016Z,39.00
2023-05-10T01:35:07.047Z,38.94
2023-05-10T01:36:07.630Z,39.00
2023-05-10T01:37:06.957Z,38.99
2023-05-10T01:38:06.915Z,39.00
2023-05-10T01:39:06.926Z,39.00
2023-05-10T01:40:06.878Z,39.01
2023-05-10T01:41:06.840Z,38.98
2023-05-10T01:42:06.868Z,38.97
2023-05-10T01:43:06.817Z,39.00
2023-05-10T01:44:06.798Z,39.00
2023-05-10T01:45:06.780Z,39.00
2023-05-10T01:46:06.760Z,38.98
2023-05-10T01:47:06.746Z,39.03
2023-05-10T01:48:06.805Z,39.00
2023-05-10T01:49:06.708Z,39.03
2023-05-10T01:50:06.690Z,39.02
2023-05-10T01:51:06.657Z,39.01
2023-05-10T01:52:06.649Z,39.02
2023-05-10T01:53:06.615Z,39.00
2023-05-10T01:54:06.586Z,38.98
2023-05-10T01:55:06.583Z,39.05
2023-05-10T01:56:06.540Z,39.00
2023-05-10T01:57:06.563Z,39.03
2023-05-10T01:58:06.507Z,39.03
2023-05-10T01:59:06.487Z,39.01
2023-05-10T02:00:06.456Z,38.98
2023-05-10T02:01:06.482Z,38.99
2023-05-10T02:02:06.426Z,39.03
2023-05-10T02:03:06.488Z,39.02
2023-05-10T02:04:06.472Z,39.00
2023-05-10T02:05:06.351Z,39.05
2023-05-10T02:06:06.325Z,39.05
2023-05-10T02:07:06.292Z,39.05
2023-05-10T02:08:06.275Z,39.03
2023-05-10T02:09:06.252Z,39.03
2023-05-10T02:10:06.211Z,39.04
2023-05-10T02:11:06.185Z,39.05
2023-05-10T02:12:06.153Z,39.03
2023-05-10T02:13:06.139Z,39.00
2023-05-10T02:14:06.099Z,39.02
2023-05-10T02:15:06.076Z,39.05
2023-05-10T02:16:06.172Z,38.99
2023-05-10T02:17:06.020Z,39.00
2023-05-10T02:18:06.005Z,39.00
2023-05-10T02:19:05.978Z,39.04
2023-05-10T02:20:05.948Z,39.06
2023-05-10T02:21:05.922Z,39.02
2023-05-10T02:22:05.890Z,39.03
2023-05-10T02:23:05.885Z,39.08
2023-05-10T02:24:05.875Z,39.04
2023-05-10T02:25:05.850Z,39.04
2023-05-10T02:26:05.839Z,39.04
2023-05-10T02:27:05.824Z,39.04
2023-05-10T02:28:05.801Z,39.03
2023-05-10T02:29:05.789Z,39.03
2023-05-10T02:30:05.774Z,39.03
2023-05-10T02:31:05.747Z,39.04
2023-05-10T02:32:05.789Z,39.05
2023-05-10T02:33:05.746Z,39.05
2023-05-10T02:34:05.705Z,39.02
2023-05-10T02:35:05.700Z,39.02
2023-05-10T02:36:05.685Z,39.06
2023-05-10T02:37:05.668Z,39.08
2023-05-10T02:38:05.661Z,39.04
2023-05-10T02:39:05.641Z,39.03
2023-05-10T02:40:05.628Z,39.07
2023-05-10T02:41:05.617Z,39.06
2023-05-10T02:42:05.604Z,39.04
2023-05-10T02:43:05.595Z,39.05
2023-05-10T02:44:05.576Z,39.01
2023-05-10T02:45:05.555Z,39.02
2023-05-10T02:46:05.578Z,39.06
2023-05-10T02:47:05.517Z,39.00
2023-05-10T02:48:05.571Z,39.06
2023-05-10T02:49:05.499Z,39.03
2023-05-10T02:50:05.475Z,39.04
2023-05-10T02:51:05.459Z,39.05
2023-05-10T02:52:05.443Z,39.01
2023-05-10T02:53:05.431Z,39.00
2023-05-10T02:54:05.408Z,39.06
2023-05-10T02:55:05.387Z,39.04
2023-05-10T02:56:05.371Z,39.06
2023-05-10T02:57:05.376Z,39.02
2023-05-10T02:58:05.356Z,39.01
2023-05-10T02:59:05.332Z,39.04
2023-05-10T03:00:05.321Z,39.05
2023-05-10T03:01:05.342Z,39.04
2023-05-10T03:02:05.294Z,39.06
2023-05-10T03:03:05.309Z,39.07
2023-05-10T03:04:05.412Z,39.05
2023-05-10T03:05:05.265Z,39.05
2023-05-10T03:06:05.250Z,39.05
2023-05-10T03:07:05.245Z,39.04
2023-05-10T03:08:05.265Z,39.06
2023-05-10T03:09:05.238Z,39.05
2023-05-10T03:10:05.224Z,39.10
2023-05-10T03:11:05.217Z,39.10
2023-05-10T03:12:05.219Z,39.07
2023-05-10T03:13:05.254Z,39.07
2023-05-10T03:14:05.209Z,39.07
2023-05-10T03:15:05.196Z,39.04
2023-05-10T03:16:05.207Z,39.05
2023-05-10T03:17:05.179Z,39.05
2023-05-10T03:18:05.202Z,39.07
2023-05-10T03:19:05.157Z,39.07
2023-05-10T03:20:05.167Z,39.05
2023-05-10T03:21:05.140Z,39.06
2023-05-10T03:22:05.133Z,39.06
2023-05-10T03:23:05.123Z,39.04
2023-05-10T03:24:05.112Z,39.05
2023-05-10T03:25:05.099Z,39.04
2023-05-10T03:26:05.096Z,39.05
2023-05-10T03:27:05.078Z,39.04
2023-05-10T03:28:05.071Z,39.05
2023-05-10T03:29:05.073Z,39.07
2023-05-10T03:30:05.066Z,39.05
2023-05-10T03:31:05.100Z,39.14
2023-05-10T03:32:05.057Z,39.09
2023-05-10T03:33:05.055Z,39.07
2023-05-10T03:34:05.046Z,39.10
2023-05-10T03:35:05.031Z,39.06
2023-05-10T03:36:05.027Z,39.06
2023-05-10T03:37:05.019Z,39.07
2023-05-10T03:38:05.015Z,39.07
2023-05-10T03:39:05.012Z,39.11
2023-05-10T03:40:05.013Z,39.07
2023-05-10T03:41:04.983Z,39.06
2023-05-10T03:42:04.987Z,39.10
2023-05-10T03:43:04.979Z,39.08
2023-05-10T03:44:04.989Z,39.06
2023-05-10T03:45:04.984Z,39.09
2023-05-10T03:46:04.978Z,39.02
2023-05-10T03:47:05.020Z,39.09
2023-05-10T03:48:05.057Z,39.08
2023-05-10T03:49:04.986Z,39.05
2023-05-10T03:50:04.981Z,39.05
2023-05-10T03:51:05.051Z,39.06
2023-05-10T03:52:04.978Z,39.06
2023-05-10T03:53:04.968Z,39.06
2023-05-10T03:54:04.970Z,39.04
2023-05-10T03:55:04.988Z,39.07
2023-05-10T03:56:04.960Z,39.09
2023-05-10T03:57:04.968Z,39.03
2023-05-10T03:58:04.952Z,39.05
2023-05-10T03:59:04.957Z,39.05
2023-05-10T04:00:05.008Z,39.03
2023-05-10T04:01:04.973Z,39.12
2023-05-10T04:02:04.956Z,39.08
2023-05-10T04:03:04.997Z,39.08
2023-05-10T04:04:04.973Z,39.04
2023-05-10T04:05:04.948Z,39.01
2023-05-10T04:06:04.986Z,39.05
2023-05-10T04:07:04.932Z,39.07
2023-05-10T04:08:04.930Z,39.08
2023-05-10T04:09:04.955Z,39.07
2023-05-10T04:10:04.937Z,39.11
2023-05-10T04:11:04.926Z,39.07
2023-05-10T04:12:04.930Z,39.08
2023-05-10T04:13:04.966Z,39.06
2023-05-10T04:14:04.937Z,39.08
2023-05-10T04:15:04.925Z,39.08
2023-05-10T04:16:04.927Z,39.05
2023-05-10T04:17:04.948Z,39.04
2023-05-10T04:18:06.568Z,39.07
2023-05-10T04:19:04.913Z,39.08
2023-05-10T04:20:04.883Z,39.07
2023-05-10T04:21:04.859Z,39.05
2023-05-10T04:22:04.852Z,39.04
2023-05-10T04:23:04.832Z,39.05
2023-05-10T04:24:04.809Z,39.01
2023-05-10T04:25:04.794Z,39.05
2023-05-10T04:26:04.761Z,39.07
2023-05-10T04:27:04.734Z,39.03
2023-05-10T04:28:04.730Z,39.05
2023-05-10T04:29:04.720Z,39.08
2023-05-10T04:30:04.685Z,39.04
2023-05-10T04:31:04.695Z,39.05
2023-05-10T04:32:04.635Z,39.03
2023-05-10T04:33:04.650Z,39.08
2023-05-10T04:34:04.609Z,39.07
2023-05-10T04:35:04.597Z,39.05
2023-05-10T04:36:04.561Z,39.01
2023-05-10T04:37:04.534Z,39.03
2023-05-10T04:38:04.520Z,39.08
2023-05-10T04:39:04.497Z,39.00
2023-05-10T04:40:04.469Z,39.09
2023-05-10T04:41:04.473Z,39.03
2023-05-10T04:42:04.454Z,39.04
2023-05-10T04:43:04.419Z,39.09
2023-05-10T04:44:04.399Z,39.01
2023-05-10T04:45:04.374Z,39.07
2023-05-10T04:46:04.378Z,39.05
2023-05-10T04:47:04.354Z,39.01
2023-05-10T04:48:04.347Z,39.04
2023-05-10T04:49:04.283Z,39.04
2023-05-10T04:50:04.257Z,39.05
2023-05-10T04:51:04.235Z,39.05
2023-05-10T04:52:04.221Z,39.07
2023-05-10T04:53:04.195Z,38.99
2023-05-10T04:54:06.471Z,39.03
2023-05-10T04:55:04.159Z,39.04
2023-05-10T04:56:04.127Z,39.01
2023-05-10T04:57:04.119Z,39.04
2023-05-10T04:58:04.094Z,39.04
2023-05-10T04:59:04.076Z,38.99
2023-05-10T05:00:04.054Z,38.99
2023-05-10T05:01:04.046Z,38.99
2023-05-10T05:02:04.070Z,39.07
2023-05-10T05:03:04.116Z,38.96
2023-05-10T05:04:03.978Z,39.01
2023-05-10T05:05:03.957Z,38.99
2023-05-10T05:06:03.946Z,39.03
2023-05-10T05:07:03.917Z,39.03
2023-05-10T05:08:03.894Z,39.00
2023-05-10T05:09:03.877Z,39.04
2023-05-10T05:10:03.868Z,38.99
2023-05-10T05:11:03.850Z,39.03
2023-05-10T05:12:03.826Z,39.04
2023-05-10T05:13:04.751Z,38.99
2023-05-10T05:14:03.794Z,38.99
2023-05-10T05:15:03.758Z,39.03
2023-05-10T05:16:03.857Z,38.99
2023-05-10T05:17:03.764Z,38.99
2023-05-10T05:18:03.768Z,38.99
2023-05-10T05:19:03.695Z,39.03
2023-05-10T05:20:03.667Z,39.23
2023-05-10T05:21:03.658Z,39.38
2023-05-10T05:22:03.646Z,39.49
2023-05-10T05:23:03.627Z,39.57
2023-05-10T05:24:03.610Z,39.64
2023-05-10T05:25:03.613Z,40.60
2023-05-10T05:26:03.642Z,41.28
2023-05-10T05:27:03.570Z,41.11
2023-05-10T05:28:03.559Z,41.35
2023-05-10T05:29:03.542Z,41.15
2023-05-10T05:30:03.509Z,41.16
2023-05-10T05:31:03.504Z,40.93
2023-05-10T05:32:03.503Z,40.70
2023-05-10T05:33:03.473Z,40.73
2023-05-10T05:34:03.441Z,40.75
2023-05-10T05:35:03.467Z,40.89
2023-05-10T05:36:03.435Z,40.94
2023-05-10T05:37:03.382Z,40.97
2023-05-10T05:38:03.366Z,40.97
2023-05-10T05:39:03.348Z,40.97
2023-05-10T05:40:03.312Z,40.96
2023-05-10T05:41:03.308Z,40.93
2023-05-10T05:42:03.271Z,40.96
2023-05-10T05:43:03.254Z,40.96
2023-05-10T05:44:03.241Z,40.97
2023-05-10T05:45:03.278Z,40.94
2023-05-10T05:46:03.230Z,40.88
2023-05-10T05:47:03.157Z,40.88
2023-05-10T05:48:03.201Z,40.81
2023-05-10T05:49:03.111Z,40.81
2023-05-10T05:50:03.092Z,40.75
2023-05-10T05:51:04.169Z,40.69
2023-05-10T05:52:03.057Z,40.73
2023-05-10T05:53:03.000Z,40.64
2023-05-10T05:54:02.992Z,40.61
2023-05-10T05:55:02.997Z,40.61
2023-05-10T05:56:02.949Z,40.60
2023-05-10T05:57:02.916Z,40.55
2023-05-10T05:58:02.923Z,40.53
2023-05-10T05:59:03.727Z,40.46
2023-05-10T06:00:02.857Z,40.44
2023-05-10T06:01:02.853Z,40.40
2023-05-10T06:02:02.863Z,40.42
2023-05-10T06:03:02.949Z,40.37
2023-05-10T06:04:02.935Z,40.32
2023-05-10T06:05:02.803Z,40.24
2023-05-10T06:06:02.811Z,40.20
2023-05-10T06:07:02.784Z,40.18
2023-05-10T06:08:02.769Z,40.17
2023-05-10T06:09:02.745Z,40.22
2023-05-10T06:10:03.669Z,40.15
2023-05-10T06:11:02.734Z,40.15
2023-05-10T06:12:02.715Z,40.11
2023-05-10T06:13:02.711Z,40.15
2023-05-10T06:14:02.663Z,40.13
2023-05-10T06:15:02.629Z,40.12
2023-05-10T06:16:02.604Z,40.11
2023-05-10T06:17:02.741Z,40.10
2023-05-10T06:18:02.580Z,40.10
2023-05-10T06:19:02.531Z,40.05
2023-05-10T06:20:02.525Z,40.05
2023-05-10T06:21:02.554Z,40.10
2023-05-10T06:22:02.465Z,40.19
2023-05-10T06:23:02.433Z,40.13
2023-05-10T06:24:02.403Z,40.76
2023-05-10T06:25:02.379Z,39.87
2023-05-10T06:26:02.349Z,39.89
2023-05-10T06:27:02.350Z,40.30
2023-05-10T06:28:02.321Z,39.60
2023-05-10T06:29:02.343Z,39.90
2023-05-10T06:30:12.230Z,40.50
2023-05-10T06:31:03.401Z,40.82
2023-05-10T06:32:02.296Z,40.56
2023-05-10T06:33:02.306Z,40.62
2023-05-10T06:34:02.277Z,40.62
2023-05-10T06:35:02.277Z,40.75
2023-05-10T06:36:02.259Z,41.17
2023-05-10T06:37:02.251Z,41.18
2023-05-10T06:38:02.258Z,41.42
2023-05-10T06:39:02.251Z,41.47
2023-05-10T06:40:02.242Z,41.21
2023-05-10T06:41:02.240Z,40.99
2023-05-10T06:42:02.307Z,40.71
2023-05-10T06:43:02.361Z,40.66
2023-05-10T06:44:02.453Z,40.66
2023-05-10T06:45:02.476Z,40.71
2023-05-10T06:46:02.561Z,40.99
2023-05-10T06:47:02.586Z,40.82
2023-05-10T06:48:02.662Z,40.70
2023-05-10T06:49:02.655Z,40.52
2023-05-10T06:50:02.694Z,40.44
2023-05-10T06:51:02.718Z,40.47
2023-05-10T06:52:02.735Z,40.46
2023-05-10T06:53:02.753Z,40.76
2023-05-10T06:54:02.784Z,40.95
2023-05-10T06:55:02.797Z,40.82
2023-05-10T06:56:02.909Z,40.64
2023-05-10T06:57:04.205Z,40.35
2023-05-10T06:58:02.798Z,40.17
2023-05-10T06:59:02.840Z,40.04
2023-05-10T07:00:02.764Z,40.25
2023-05-10T07:01:02.791Z,40.21
2023-05-10T07:02:02.804Z,40.14
2023-05-10T07:03:02.769Z,40.24
2023-05-10T07:04:02.767Z,40.16
2023-05-10T07:05:03.453Z,40.10
2023-05-10T07:06:02.661Z,40.18
2023-05-10T07:07:02.650Z,40.00
2023-05-10T07:08:02.631Z,39.74
2023-05-10T07:09:02.621Z,39.49
2023-05-10T07:10:02.597Z,39.58
2023-05-10T07:11:02.559Z,39.45
2023-05-10T07:12:02.676Z,39.52
2023-05-10T07:13:02.594Z,39.46
2023-05-10T07:14:02.494Z,39.61
2023-05-10T07:15:02.479Z,39.62
2023-05-10T07:16:02.484Z,39.39
2023-05-10T07:17:02.452Z,40.05
2023-05-10T07:18:02.543Z,39.87
2023-05-10T07:19:02.401Z,40.28
2023-05-10T07:20:02.382Z,40.10
2023-05-10T07:21:02.399Z,40.96
2023-05-10T07:22:03.270Z,40.99
2023-05-10T07:23:02.349Z,41.14
2023-05-10T07:24:02.300Z,41.39
2023-05-10T07:25:02.292Z,41.67
2023-05-10T07:26:02.258Z,41.31
2023-05-10T07:27:02.227Z,41.40
2023-05-10T07:28:02.179Z,41.39
2023-05-10T07:29:02.148Z,41.27
2023-05-10T07:30:02.132Z,41.37
2023-05-10T07:31:02.129Z,41.41
2023-05-10T07:32:02.082Z,41.31
2023-05-10T07:33:02.074Z,41.41
2023-05-10T07:34:01.974Z,41.41
2023-05-10T07:35:01.965Z,41.51
2023-05-10T07:36:01.917Z,41.60
2023-05-10T07:37:01.870Z,41.60
2023-05-10T07:38:01.835Z,41.49
2023-05-10T07:39:01.792Z,41.49
2023-05-10T07:40:01.762Z,41.68
2023-05-10T07:41:01.749Z,41.64
2023-05-10T07:42:01.659Z,41.70
2023-05-10T07:43:01.612Z,41.78
2023-05-10T07:44:01.574Z,41.82
2023-05-10T07:45:01.535Z,41.85
2023-05-10T07:46:01.512Z,41.84
2023-05-10T07:47:01.431Z,41.96
2023-05-10T07:48:01.459Z,42.24
2023-05-10T07:49:01.353Z,42.18
2023-05-10T07:50:01.352Z,42.56
2023-05-10T07:51:01.355Z,42.84
2023-05-10T07:52:01.326Z,42.66
2023-05-10T07:53:01.316Z,42.99
2023-05-10T07:54:01.327Z,43.09
2023-05-10T07:55:01.280Z,43.16
2023-05-10T07:56:01.278Z,43.21
2023-05-10T07:57:01.256Z,43.41
2023-05-10T07:58:01.253Z,43.46
2023-05-10T07:59:01.223Z,43.48
2023-05-10T08:00:01.217Z,43.58
2023-05-10T08:01:01.175Z,43.58
2023-05-10T08:02:01.162Z,43.72
2023-05-10T08:03:01.215Z,43.54
2023-05-10T08:04:01.223Z,43.80
2023-05-10T08:05:01.074Z,43.72
2023-05-10T08:06:01.051Z,43.85
2023-05-10T08:07:01.011Z,43.84
2023-05-10T08:08:00.984Z,44.01
2023-05-10T08:09:00.973Z,44.05
2023-05-10T08:10:00.957Z,44.28
2023-05-10T08:11:00.891Z,44.34
2023-05-10T08:12:00.868Z,44.46
2023-05-10T08:13:00.829Z,44.51
2023-05-10T08:14:00.798Z,44.34
2023-05-10T08:15:01.147Z,43.85
2023-05-10T08:16:00.911Z,40.11
2023-05-10T08:17:00.745Z,39.14
2023-05-10T08:18:00.771Z,37.68
2023-05-10T08:19:00.833Z,37.53
2023-05-10T08:20:00.792Z,37.93
2023-05-10T08:21:00.807Z,37.76
2023-05-10T08:22:00.864Z,37.52
2023-05-10T08:23:00.896Z,36.74
2023-05-10T08:24:00.895Z,36.33
2023-05-10T08:25:00.896Z,36.90
2023-05-10T08:26:00.872Z,38.33
2023-05-10T08:27:00.854Z,39.19
2023-05-10T08:28:00.830Z,39.30
2023-05-10T08:29:00.890Z,39.89
2023-05-10T08:30:01.142Z,39.78
2023-05-10T08:31:00.928Z,39.69
2023-05-10T08:32:00.944Z,40.24
2023-05-10T08:33:01.050Z,40.01
2023-05-10T08:34:01.787Z,40.17
2023-05-10T08:35:00.972Z,40.33
2023-05-10T08:36:01.957Z,40.16
2023-05-10T08:37:00.903Z,40.24
2023-05-10T08:38:00.884Z,40.42
2023-05-10T08:39:00.814Z,40.68
2023-05-10T08:40:00.799Z,40.85
2023-05-10T08:41:00.785Z,40.76
2023-05-10T08:42:00.703Z,40.79
2023-05-10T08:43:00.674Z,40.87
2023-05-10T08:44:00.623Z,40.94
2023-05-10T08:45:00.591Z,41.14
2023-05-10T08:46:00.547Z,41.22
2023-05-10T08:47:00.668Z,41.15
2023-05-10T08:48:00.553Z,41.44
2023-05-10T08:49:00.425Z,41.23
2023-05-10T08:50:00.398Z,41.36
2023-05-10T08:51:00.350Z,41.56
2023-05-10T08:52:00.307Z,41.58
2023-05-10T08:53:00.256Z,41.80
2023-05-10T08:54:00.207Z,42.12
2023-05-10T08:55:00.201Z,42.21
2023-05-10T08:56:00.166Z,42.28
2023-05-10T08:57:00.150Z,42.22
2023-05-10T08:58:00.098Z,42.45
2023-05-10T08:59:00.073Z,42.97
2023-05-10T09:00:00.051Z,42.84
2023-05-10T09:01:00.005Z,42.94
2023-05-10T09:01:59.964Z,43.08
2023-05-10T09:02:59.955Z,43.51
2023-05-10T09:04:00.047Z,43.37
2023-05-10T09:05:00.025Z,43.42
2023-05-10T09:05:59.845Z,43.72
2023-05-10T09:06:59.817Z,43.71
2023-05-10T09:07:59.755Z,44.42
2023-05-10T09:08:59.705Z,44.28
2023-05-10T09:09:59.667Z,44.04
2023-05-10T09:11:00.632Z,44.33
2023-05-10T09:11:59.580Z,44.36
2023-05-10T09:12:59.739Z,44.51
2023-05-10T09:13:59.500Z,44.68
2023-05-10T09:14:59.442Z,44.94
2023-05-10T09:16:04.439Z,45.25
2023-05-10T09:17:00.384Z,45.02
2023-05-10T09:17:59.359Z,44.80
2023-05-10T09:18:59.312Z,44.76
2023-05-10T09:19:59.313Z,44.79
2023-05-10T09:20:59.187Z,44.80
2023-05-10T09:21:59.140Z,44.68
2023-05-10T09:22:59.090Z,44.73
2023-05-10T09:23:59.080Z,44.70
2023-05-10T09:24:59.009Z,44.68
2023-05-10T09:25:58.953Z,44.77
2023-05-10T09:26:58.903Z,44.73
2023-05-10T09:27:58.876Z,44.76
2023-05-10T09:28:58.810Z,44.77
2023-05-10T09:29:58.766Z,44.90
2023-05-10T09:30:59.329Z,44.99
2023-05-10T09:31:58.756Z,44.97
2023-05-10T09:32:58.801Z,45.04
2023-05-10T09:33:58.739Z,44.99
2023-05-10T09:34:58.728Z,45.02
2023-05-10T09:35:58.740Z,45.08
2023-05-10T09:36:58.716Z,45.14
2023-05-10T09:37:58.746Z,45.20
2023-05-10T09:38:58.699Z,45.17
2023-05-10T09:39:58.693Z,45.19
2023-05-10T09:40:58.703Z,45.24
2023-05-10T09:41:58.702Z,45.25
2023-05-10T09:42:58.689Z,45.38
2023-05-10T09:43:58.692Z,45.46
2023-05-10T09:44:58.683Z,45.40
2023-05-10T09:45:58.697Z,45.39
2023-05-10T09:46:58.697Z,45.50
2023-05-10T09:47:58.751Z,45.43
2023-05-10T09:48:58.710Z,45.54
2023-05-10T09:49:58.700Z,45.60
2023-05-10T09:50:58.712Z,45.62
2023-05-10T09:51:58.705Z,45.59
2023-05-10T09:52:58.730Z,45.52
2023-05-10T09:53:58.714Z,45.48
2023-05-10T09:54:58.732Z,45.52
2023-05-10T09:55:58.735Z,45.60
2023-05-10T09:56:58.746Z,45.60
2023-05-10T09:57:58.739Z,45.36
2023-05-10T09:58:58.746Z,45.48
2023-05-10T09:59:58.747Z,45.55
2023-05-10T10:00:58.757Z,45.50
2023-05-10T10:01:58.917Z,45.56
2023-05-10T10:02:58.885Z,45.46
2023-05-10T10:03:58.785Z,45.41
2023-05-10T10:04:58.848Z,45.38
2023-05-10T10:05:58.836Z,45.37
2023-05-10T10:06:58.825Z,45.41
2023-05-10T10:07:58.841Z,45.36
2023-05-10T10:08:59.756Z,45.41
2023-05-10T10:09:58.864Z,45.40
2023-05-10T10:10:58.876Z,45.36
2023-05-10T10:11:58.895Z,45.40
2023-05-10T10:12:58.899Z,45.33
2023-05-10T10:13:58.913Z,45.34
2023-05-10T10:14:58.932Z,45.31
2023-05-10T10:15:59.125Z,45.33
2023-05-10T10:17:06.713Z,45.33
2023-05-10T10:17:59.955Z,45.30
2023-05-10T10:18:58.903Z,45.35
2023-05-10T10:19:58.840Z,45.32
2023-05-10T10:20:58.794Z,45.32
2023-05-10T10:21:58.757Z,45.32
2023-05-10T10:22:58.736Z,45.32
2023-05-10T10:23:58.708Z,45.32
2023-05-10T10:24:58.640Z,45.32
2023-05-10T10:25:58.603Z,45.27
2023-05-10T10:26:58.571Z,45.36
2023-05-10T10:27:58.574Z,45.33
2023-05-10T10:28:58.604Z,45.29
2023-05-10T10:29:58.603Z,45.27
2023-05-10T10:30:58.683Z,45.19
2023-05-10T10:31:58.777Z,45.22
2023-05-10T10:32:58.702Z,45.26
2023-05-10T10:33:58.671Z,45.26
2023-05-10T10:34:59.276Z,45.24
2023-05-10T10:35:58.707Z,45.24
2023-05-10T10:36:58.723Z,45.24
2023-05-10T10:37:58.743Z,45.21
2023-05-10T10:38:58.758Z,45.17
2023-05-10T10:39:58.772Z,45.14
2023-05-10T10:40:58.794Z,45.18
2023-05-10T10:41:58.819Z,45.24
2023-05-10T10:42:58.843Z,45.16
2023-05-10T10:43:58.825Z,45.14
2023-05-10T10:44:58.838Z,45.11
2023-05-10T10:45:58.857Z,45.08
2023-05-10T10:46:58.902Z,45.16
2023-05-10T10:47:58.922Z,45.19
2023-05-10T10:48:58.914Z,45.14
2023-05-10T10:49:58.990Z,45.11
2023-05-10T10:50:58.960Z,45.09
2023-05-10T10:51:58.965Z,45.10
2023-05-10T10:52:59.022Z,45.05
2023-05-10T10:53:59.008Z,45.06
2023-05-10T10:54:59.099Z,45.00
2023-05-10T10:55:59.069Z,45.02
2023-05-10T10:56:59.064Z,44.99
2023-05-10T10:57:59.089Z,45.01
2023-05-10T10:58:59.097Z,44.92
2023-05-10T10:59:59.115Z,44.94
2023-05-10T11:00:59.228Z,44.94
2023-05-10T11:01:59.169Z,44.91
2023-05-10T11:02:59.254Z,44.89
2023-05-10T11:03:59.246Z,44.93
2023-05-10T11:04:59.243Z,44.89
2023-05-10T11:05:59.260Z,44.90
2023-05-10T11:06:59.283Z,44.92
2023-05-10T11:07:59.317Z,44.93
2023-05-10T11:08:59.370Z,44.87
2023-05-10T11:09:59.377Z,44.88
2023-05-10T11:10:59.398Z,44.80
2023-05-10T11:11:59.426Z,44.82
2023-05-10T11:12:59.437Z,44.86
2023-05-10T11:13:59.465Z,44.85
2023-05-10T11:14:59.505Z,44.86
2023-05-10T11:15:59.526Z,44.87
2023-05-10T11:16:59.605Z,44.84
2023-05-10T11:17:59.616Z,44.83
2023-05-10T11:18:59.630Z,44.83
2023-05-10T11:19:59.635Z,44.86
2023-05-10T11:20:59.675Z,44.79
2023-05-10T11:21:59.744Z,44.78
2023-05-10T11:22:59.747Z,44.74
2023-05-10T11:23:59.766Z,44.76
2023-05-10T11:24:59.820Z,44.80
2023-05-10T11:25:59.826Z,44.72
2023-05-10T11:26:59.859Z,44.75
2023-05-10T11:27:59.901Z,44.76
2023-05-10T11:28:59.937Z,44.77
2023-05-10T11:29:59.964Z,44.77
2023-05-10T11:31:00.014Z,44.76
2023-05-10T11:32:00.105Z,44.74
2023-05-10T11:33:00.120Z,44.70
2023-05-10T11:34:00.141Z,44.70
2023-05-10T11:35:00.153Z,44.69
2023-05-10T11:36:00.180Z,44.72
2023-05-10T11:37:00.231Z,44.67
2023-05-10T11:38:00.238Z,44.67
2023-05-10T11:39:00.271Z,44.71
2023-05-10T11:40:00.317Z,44.66
2023-05-10T11:41:00.381Z,44.69
2023-05-10T11:42:00.395Z,44.67
2023-05-10T11:43:00.420Z,44.68
2023-05-10T11:44:00.467Z,44.68
2023-05-10T11:45:00.488Z,44.64
2023-05-10T11:46:00.577Z,44.68
2023-05-10T11:47:00.558Z,44.67
2023-05-10T11:48:00.674Z,44.60
2023-05-10T11:49:00.651Z,44.61
2023-05-10T11:50:00.667Z,44.58
2023-05-10T11:51:00.703Z,44.58
2023-05-10T11:52:00.738Z,44.61
2023-05-10T11:53:00.764Z,44.66
2023-05-10T11:54:00.884Z,44.61
2023-05-10T11:55:00.835Z,44.59
2023-05-10T11:56:00.880Z,44.56
2023-05-10T11:57:00.897Z,44.59
2023-05-10T11:58:00.927Z,44.58
2023-05-10T11:59:00.958Z,44.59
2023-05-10T12:00:01.213Z,44.59
2023-05-10T12:01:01.054Z,44.57
2023-05-10T12:02:01.071Z,44.59
2023-05-10T12:03:01.238Z,44.56
2023-05-10T12:04:01.388Z,44.59
2023-05-10T12:05:01.328Z,44.54
2023-05-10T12:06:01.235Z,44.54
2023-05-10T12:07:01.245Z,44.55
2023-05-10T12:08:01.279Z,44.53
2023-05-10T12:09:01.319Z,44.51
2023-05-10T12:10:01.377Z,44.57
2023-05-10T12:11:01.400Z,44.51
2023-05-10T12:12:01.418Z,44.49
2023-05-10T12:13:01.454Z,44.52
2023-05-10T12:14:01.499Z,44.51
2023-05-10T12:15:01.534Z,44.50
2023-05-10T12:17:01.611Z,44.47
2023-05-10T12:18:01.666Z,44.47
2023-05-10T12:19:01.816Z,44.47
2023-05-10T12:20:01.719Z,44.48
2023-05-10T12:21:01.758Z,44.44
2023-05-10T12:22:01.800Z,44.46
2023-05-10T12:23:01.821Z,44.40
2023-05-10T12:24:01.866Z,44.42
2023-05-10T12:25:01.889Z,44.37
2023-05-10T12:26:01.926Z,44.42
2023-05-10T12:27:01.950Z,44.40
2023-05-10T12:28:01.987Z,44.40
2023-05-10T12:29:02.025Z,44.36
2023-05-10T12:30:02.053Z,44.42
2023-05-10T12:31:02.090Z,44.40
2023-05-10T12:32:02.163Z,44.38
2023-05-10T12:33:02.189Z,44.36
2023-05-10T12:34:02.185Z,44.33
2023-05-10T12:35:02.216Z,44.30
2023-05-10T12:36:02.243Z,44.26
2023-05-10T12:37:02.274Z,44.31
2023-05-10T12:38:02.300Z,44.30
2023-05-10T12:39:02.341Z,44.26
2023-05-10T12:40:02.368Z,44.25
2023-05-10T12:41:02.454Z,44.29
2023-05-10T12:42:02.446Z,44.29
2023-05-10T12:43:02.520Z,44.28
2023-05-10T12:44:02.514Z,44.27
2023-05-10T12:45:02.554Z,44.25
2023-05-10T12:46:02.600Z,44.23
2023-05-10T12:47:02.647Z,44.26
2023-05-10T12:48:02.687Z,44.23
2023-05-10T12:49:09.020Z,44.24
2023-05-10T12:50:03.683Z,44.20
2023-05-10T12:51:02.647Z,44.23
2023-05-10T12:52:02.597Z,44.21
2023-05-10T12:53:02.567Z,44.21